Parthenon, Arkansas
Current Conditions -  °F | °C
As of 5:53 AM on Friday 19 Dec 2014 (Local Time) from KHRO Reporting Station
Haze Haze  
Wind Chill: 37°   Ceiling: 300
Heat Index: 37°   Visibility: 5mi
Dew Point: 36°   Wind: 3mph
Humidity: 96%   Direction: 110°ESE
Pressure: 30.2"   Gusts: NA
Location:  35.95°N, 93.24°W
Report Text: KHRO 191153Z AUTO 11003KT 5SM BR OVC003 03/02 A3020 RMK AO2 SLP234 T00280022 10028 20022 53006
Loading
Personal Weather Stations






























Interactive Weather Map New forecast layout! Learn more

10-Day Weather Forecast

Advertisements
Track Severe Weather on mobile